Time;durP1;ratioP1;P1;durP2;ratioP2;P2;SDS_P1;SDS_P2;PMS_P1;PMS_P2;Temp;Humidity;BMP_temperature;BMP_pressure;BME280_temperature;BME280_humidity;BME280_pressure;Samples;Min_cycle;Max_cycle;Signal;HPM_P1;HPM_P2
2022/05/11 00:00:45;;;;;;;4.53;2.10;;;;;;;20.49;41.91;101258.09;4907834;28;123736;-75
2022/05/11 00:03:12;;;;;;;3.22;1.85;;;;;;;20.48;41.86;101251.03;4894280;28;122710;-76
2022/05/11 00:05:39;;;;;;;4.40;2.17;;;;;;;20.48;41.75;101245.66;4893032;28;114412;-76
2022/05/11 00:08:07;;;;;;;4.78;2.08;;;;;;;20.48;42.02;101245.66;4894818;28;115123;-75
2022/05/11 00:10:35;;;;;;;4.53;2.50;;;;;;;20.49;41.92;101241.97;4908908;28;123108;-75
2022/05/11 00:13:03;;;;;;;4.60;2.35;;;;;;;20.48;41.92;101240.25;4893951;28;124954;-76
2022/05/11 00:15:31;;;;;;;5.60;2.40;;;;;;;20.48;42.05;101238.41;4895057;28;114282;-75
2022/05/11 00:17:58;;;;;;;3.30;1.83;;;;;;;20.48;41.96;101242.94;4894059;28;113150;-75
2022/05/11 00:20:26;;;;;;;3.17;2.10;;;;;;;20.48;42.16;101240.25;4894489;28;124209;-75
2022/05/11 00:22:54;;;;;;;5.30;2.30;;;;;;;20.47;42.13;101243.91;4894147;28;124211;-75
2022/05/11 00:25:25;;;;;;;4.95;2.33;;;;;;;20.46;42.46;101232.31;4893740;28;114341;-75
2022/05/11 00:27:56;;;;;;;6.38;2.25;;;;;;;20.46;42.28;101231.47;4892083;28;113529;-75
2022/05/11 00:30:24;;;;;;;3.60;2.33;;;;;;;20.46;42.53;101231.47;4892321;28;123268;-75
2022/05/11 00:32:54;;;;;;;3.47;2.40;;;;;;;20.47;42.40;101225.09;4893539;28;124274;-75
2022/05/11 00:35:21;;;;;;;5.53;2.42;;;;;;;20.46;42.36;101220.69;4894074;28;113940;-74
2022/05/11 00:37:48;;;;;;;4.60;2.40;;;;;;;20.47;42.28;101219.69;4892012;28;113032;-75
2022/05/11 00:40:17;;;;;;;3.15;2.38;;;;;;;20.47;42.34;101222.41;4892451;28;124232;-75
2022/05/11 00:42:44;;;;;;;6.13;2.45;;;;;;;20.47;42.47;101211.63;4891510;28;124025;-75
2022/05/11 00:45:12;;;;;;;4.53;2.47;;;;;;;20.46;42.44;101204.56;4859964;28;113449;-75
2022/05/11 00:47:56;;;;;;;4.25;2.42;;;;;;;20.43;42.26;101198.41;4893206;28;113985;-75
2022/05/11 00:50:30;;;;;;;4.90;2.50;;;;;;;20.44;42.61;101188.53;4892206;28;124696;-75
2022/05/11 00:53:11;;;;;;;4.32;2.50;;;;;;;20.43;42.71;101190.34;4890294;28;124267;-75
2022/05/11 00:55:44;;;;;;;3.80;2.30;;;;;;;20.44;42.67;101191.22;4890896;28;115330;-75
2022/05/11 00:58:25;;;;;;;4.15;2.72;;;;;;;20.41;42.49;101192.31;4891655;28;114144;-75
2022/05/11 01:00:53;;;;;;;4.75;2.90;;;;;;;20.40;42.52;101185.22;4891434;28;124131;-75
2022/05/11 01:03:30;;;;;;;5.65;2.60;;;;;;;20.40;42.66;101179.84;4892201;28;124387;-75
2022/05/11 01:05:57;;;;;;;4.80;2.78;;;;;;;20.39;42.71;101178.13;4907491;28;114184;-74
2022/05/11 01:08:25;;;;;;;4.28;2.55;;;;;;;20.38;42.61;101179.13;4906517;28;113698;-75
2022/05/11 01:10:52;;;;;;;6.25;3.03;;;;;;;20.36;42.65;101183.78;4906807;28;124223;-75
2022/05/11 01:13:20;;;;;;;3.88;2.80;;;;;;;20.37;42.69;101176.56;4907341;28;123942;-75
2022/05/11 01:15:51;;;;;;;5.10;2.67;;;;;;;20.35;42.75;101176.66;4907657;28;114051;-75
2022/05/11 01:18:20;;;;;;;4.53;2.67;;;;;;;20.36;42.50;101178.41;4891090;28;114109;-75
2022/05/11 01:20:47;;;;;;;4.75;3.13;;;;;;;20.35;42.68;101176.66;4891236;28;125660;-75
2022/05/11 01:23:20;;;;;;;5.57;2.97;;;;;;;20.35;42.69;101165.91;4906592;28;122651;-75
2022/05/11 01:25:48;;;;;;;3.15;2.67;;;;;;;20.36;42.66;101173.00;4906565;28;114016;-75
2022/05/11 01:28:17;;;;;;;7.32;2.85;;;;;;;20.36;42.92;101173.00;4892308;28;114247;-75
2022/05/11 01:30:50;;;;;;;4.80;2.90;;;;;;;20.37;42.84;101173.84;4891066;28;124665;-76
2022/05/11 01:33:22;;;;;;;4.20;3.10;;;;;;;20.36;42.81;101164.94;4920999;28;124599;-75
2022/05/11 01:36:18;;;;;;;6.47;3.22;;;;;;;20.37;42.78;101165.78;4925685;28;114184;-75
2022/05/11 01:38:46;;;;;;;5.13;3.10;;;;;;;20.36;42.68;101156.88;4894311;28;114701;-75
2022/05/11 01:41:22;;;;;;;6.80;3.10;;;;;;;20.36;42.86;101151.50;4910784;28;123823;-75
2022/05/11 01:43:51;;;;;;;4.97;2.67;;;;;;;20.36;42.86;101156.88;4893069;28;124663;-75
2022/05/11 01:46:19;;;;;;;7.10;3.10;;;;;;;20.36;42.76;101156.88;4925676;28;115679;-75
2022/05/11 01:48:47;;;;;;;6.28;2.88;;;;;;;20.35;42.78;101159.69;4911130;28;114977;-75
2022/05/11 01:51:16;;;;;;;7.03;3.05;;;;;;;20.35;42.73;101159.69;4893453;28;123593;-74
2022/05/11 01:53:43;;;;;;;4.85;2.90;;;;;;;20.32;43.03;101155.38;4911521;28;124253;-75
2022/05/11 01:56:14;;;;;;;5.10;2.95;;;;;;;20.31;43.04;101153.69;4893895;28;114731;-76
2022/05/11 01:58:42;;;;;;;4.55;2.80;;;;;;;20.31;43.10;101147.47;4895904;28;97578;-75
2022/05/11 02:01:09;;;;;;;5.05;3.08;;;;;;;20.30;43.07;101151.97;4909699;28;124826;-74
2022/05/11 02:03:36;;;;;;;4.40;2.75;;;;;;;20.30;43.00;101151.97;4925667;28;124162;-75
2022/05/11 02:08:49;;;;;;;5.57;2.92;;;;;;;20.30;43.16;101143.91;4893471;28;114772;-75
2022/05/11 02:11:16;;;;;;;6.22;3.05;;;;;;;20.30;43.04;101140.38;4892173;28;124346;-75
2022/05/11 02:13:44;;;;;;;5.82;2.70;;;;;;;20.30;43.02;101141.22;4909952;28;123885;-75
2022/05/11 02:16:13;;;;;;;5.13;2.83;;;;;;;20.32;43.14;101133.03;4925959;28;113098;-75
2022/05/11 02:18:41;;;;;;;3.75;2.72;;;;;;;20.32;43.09;101133.03;4911059;28;112980;-75
2022/05/11 02:21:08;;;;;;;4.03;2.60;;;;;;;20.31;43.01;101137.56;4893092;28;124939;-75
2022/05/11 02:23:37;;;;;;;4.47;2.90;;;;;;;20.30;43.13;101133.13;4925378;28;124248;-76
2022/05/11 02:26:05;;;;;;;4.57;3.00;;;;;;;20.30;43.22;101130.44;4925521;28;112748;-75
2022/05/11 02:28:32;;;;;;;5.20;2.85;;;;;;;20.29;43.04;101128.75;4910929;28;115184;-75
2022/05/11 02:31:03;;;;;;;4.88;2.88;;;;;;;20.29;43.18;101128.75;4909924;28;124971;-75
2022/05/11 02:33:31;;;;;;;7.60;2.95;;;;;;;20.29;43.16;101134.13;4925490;28;123258;-76
2022/05/11 02:35:58;;;;;;;5.00;2.40;;;;;;;20.29;43.31;101123.38;4910744;28;115193;-76
2022/05/11 02:38:28;;;;;;;6.50;2.85;;;;;;;20.30;43.09;101126.91;4907549;28;113785;-76
2022/05/11 02:40:56;;;;;;;5.07;2.80;;;;;;;20.28;43.24;101132.41;4909724;28;123639;-75
2022/05/11 02:43:23;;;;;;;4.47;2.63;;;;;;;20.27;42.96;101119.97;4910898;28;123741;-75
2022/05/11 02:45:50;;;;;;;3.58;2.75;;;;;;;20.24;43.31;101125.56;4895114;28;115108;-76
2022/05/11 02:48:22;;;;;;;4.65;2.38;;;;;;;20.21;43.35;101133.88;4914433;28;114064;-76
2022/05/11 02:50:52;;;;;;;4.90;2.50;;;;;;;20.19;43.59;101122.41;4931103;28;124556;-76
2022/05/11 02:53:20;;;;;;;7.45;2.80;;;;;;;20.17;43.48;101135.13;4917167;28;124315;-76
2022/05/11 02:55:49;;;;;;;6.07;2.83;;;;;;;20.16;43.46;101126.19;4899491;28;113445;-75
2022/05/11 02:58:19;;;;;;;6.35;2.45;;;;;;;20.16;43.43;101125.34;4912835;28;113045;-76
2022/05/11 03:00:48;;;;;;;4.85;2.67;;;;;;;20.14;43.54;101125.47;4895050;28;122739;-75
2022/05/11 03:03:17;;;;;;;4.45;2.67;;;;;;;20.14;43.59;101121.94;4913719;28;123230;-75
2022/05/11 03:05:44;;;;;;;3.25;2.60;;;;;;;20.13;43.48;101122.91;4896142;28;113664;-75
2022/05/11 03:08:11;;;;;;;3.70;2.80;;;;;;;20.13;43.75;101120.22;4928782;28;112767;-75
2022/05/11 03:10:40;;;;;;;5.70;2.83;;;;;;;20.13;43.68;101120.22;4912875;28;124298;-75
2022/05/11 03:13:08;;;;;;;7.68;3.13;;;;;;;20.12;43.91;101115.84;4913961;28;124868;-76
2022/05/11 03:15:35;;;;;;;3.40;2.60;;;;;;;20.12;43.71;101115.84;4913956;28;114823;-76
2022/05/11 03:18:03;;;;;;;5.15;2.97;;;;;;;20.12;43.68;101121.22;4913867;28;114853;-76
2022/05/11 03:20:31;;;;;;;5.28;2.78;;;;;;;20.09;43.74;101122.28;4912834;28;123884;-75
2022/05/11 03:22:58;;;;;;;4.30;2.63;;;;;;;20.09;43.79;101113.38;4928328;28;124658;-76
2022/05/11 03:25:26;;;;;;;4.10;2.70;;;;;;;20.08;43.70;101114.34;4913048;28;115802;-75
2022/05/11 03:27:53;;;;;;;6.97;3.05;;;;;;;20.08;43.72;101114.34;4895812;28;113173;-75
2022/05/11 03:30:21;;;;;;;7.47;2.72;;;;;;;20.07;43.84;101101.91;4895430;28;123572;-76
2022/05/11 03:35:35;;;;;;;4.20;2.70;;;;;;;20.03;43.77;101096.75;4927967;28;113692;-76
2022/05/11 03:38:03;;;;;;;4.53;2.72;;;;;;;20.03;43.69;101096.75;4913260;28;113762;-76
2022/05/11 03:40:31;;;;;;;3.92;2.40;;;;;;;20.05;43.75;101082.34;4912297;28;123918;-75
2022/05/11 03:42:58;;;;;;;3.90;2.05;;;;;;;20.07;44.00;101085.75;4913505;28;124881;-76
2022/05/11 03:45:25;;;;;;;3.05;2.30;;;;;;;20.08;43.94;101082.06;4896089;28;114416;-75
2022/05/11 03:47:52;;;;;;;5.10;2.50;;;;;;;20.08;43.80;101079.38;4913599;28;113859;-76
2022/05/11 03:50:22;;;;;;;6.05;2.30;;;;;;;20.07;43.87;101080.38;4909677;28;124251;-76
2022/05/11 03:52:51;;;;;;;4.35;2.67;;;;;;;20.08;44.19;101079.38;4911526;28;124230;-76
2022/05/11 03:55:19;;;;;;;4.15;2.60;;;;;;;20.09;43.73;101078.41;4912235;28;114338;-76
2022/05/11 03:57:46;;;;;;;2.92;2.10;;;;;;;20.08;43.91;101072.19;4911175;28;114638;-76
2022/05/11 04:00:18;;;;;;;5.55;2.80;;;;;;;20.06;43.72;101073.28;4910966;28;123835;-75
2022/05/11 04:02:46;;;;;;;3.80;2.25;;;;;;;20.08;43.88;101076.69;4909489;28;123757;-75
2022/05/11 04:05:14;;;;;;;3.45;2.35;;;;;;;20.08;44.00;101079.38;4911491;28;114743;-75
2022/05/11 04:07:42;;;;;;;6.35;2.47;;;;;;;20.07;43.82;101069.63;4896283;28;113940;-75
2022/05/11 04:10:11;;;;;;;5.15;2.63;;;;;;;20.07;43.79;101069.63;4895051;28;124144;-75
2022/05/11 04:12:38;;;;;;;5.18;2.05;;;;;;;20.06;43.97;101063.41;4895036;28;123698;-75
2022/05/11 04:15:06;;;;;;;4.40;2.40;;;;;;;20.06;43.76;101067.91;4895442;28;115529;-75
2022/05/11 04:17:34;;;;;;;4.10;2.03;;;;;;;20.07;43.81;101066.94;4913403;28;115158;-75
2022/05/11 04:20:04;;;;;;;2.67;2.08;;;;;;;20.08;43.79;101071.31;4910194;28;123608;-75
2022/05/11 04:22:31;;;;;;;4.13;2.13;;;;;;;20.08;43.83;101074.00;4894974;28;125155;-75
2022/05/11 04:24:59;;;;;;;3.15;2.10;;;;;;;20.09;43.88;101073.03;4926896;28;113488;-76
2022/05/11 04:27:26;;;;;;;3.55;2.03;;;;;;;20.08;43.75;101063.25;4895339;28;113959;-75
2022/05/11 04:29:53;;;;;;;4.25;2.53;;;;;;;20.08;43.91;101071.31;4911363;28;124092;-76
2022/05/11 04:32:20;;;;;;;2.95;2.10;;;;;;;20.08;43.88;101065.94;4912358;28;125475;-75
2022/05/11 04:34:47;;;;;;;4.18;2.17;;;;;;;20.08;43.88;101066.81;4894769;28;113771;-75
2022/05/11 04:37:14;;;;;;;3.15;2.20;;;;;;;20.10;43.89;101058.59;4912687;28;114755;-75
2022/05/11 04:39:42;;;;;;;4.40;2.10;;;;;;;20.13;43.77;101061.06;4911760;28;124177;-75
2022/05/11 04:42:11;;;;;;;3.33;2.13;;;;;;;20.12;43.94;101062.91;4911759;28;123894;-75
2022/05/11 04:44:38;;;;;;;3.47;2.17;;;;;;;20.13;43.84;101058.38;4912952;28;114336;-76
2022/05/11 04:47:13;;;;;;;4.80;2.38;;;;;;;20.14;43.92;101065.47;4911584;28;114102;-76
2022/05/11 04:49:42;;;;;;;5.13;2.17;;;;;;;20.15;43.89;101064.47;4893550;28;124427;-74
2022/05/11 04:52:15;;;;;;;2.47;1.90;;;;;;;20.16;43.85;101063.50;4910850;28;124020;-75
2022/05/11 04:54:53;;;;;;;5.75;2.20;;;;;;;20.17;43.83;101060.69;4926220;28;112815;-76
2022/05/11 04:57:21;;;;;;;4.75;2.20;;;;;;;20.20;44.08;101070.34;4925032;28;113647;-75
2022/05/11 04:59:49;;;;;;;3.55;2.42;;;;;;;20.21;43.95;101066.66;4910921;28;123963;-75
2022/05/11 05:02:19;;;;;;;4.25;2.20;;;;;;;20.22;44.08;101063.00;4909551;28;123686;-75
2022/05/11 05:04:47;;;;;;;4.07;2.05;;;;;;;20.24;43.89;101063.72;4893816;28;114908;-75
2022/05/11 05:07:15;;;;;;;3.53;1.90;;;;;;;20.27;43.94;101070.66;4911126;28;115396;-75
2022/05/11 05:09:42;;;;;;;3.33;1.80;;;;;;;20.30;44.10;101076.66;4910586;28;124624;-75
2022/05/11 05:12:11;;;;;;;3.85;2.10;;;;;;;20.33;44.03;101071.03;4893767;28;122639;-75
2022/05/11 05:14:39;;;;;;;3.75;1.90;;;;;;;20.35;44.08;101074.44;4925761;28;113556;-75
2022/05/11 05:17:10;;;;;;;4.00;2.20;;;;;;;20.37;44.08;101077.84;4911616;28;113848;-75
2022/05/11 05:19:39;;;;;;;4.30;2.10;;;;;;;20.39;43.98;101075.88;4908177;28;124633;-75
2022/05/11 05:22:06;;;;;;;3.60;2.08;;;;;;;20.42;44.10;101074.81;4894487;28;123232;-76
2022/05/11 05:24:34;;;;;;;3.83;2.25;;;;;;;20.46;44.08;101080.78;4914029;28;114924;-75
2022/05/11 05:27:02;;;;;;;3.60;1.90;;;;;;;20.49;44.17;101075.13;4913711;28;113866;-75
2022/05/11 05:32:15;;;;;;;;;;;;;;;20.48;43.81;101078.81;4910880;28;123796;-75
2022/05/11 05:34:43;;;;;;;3.67;2.03;;;;;;;20.51;43.84;101083.94;4927409;28;114411;-75
2022/05/11 05:37:16;;;;;;;3.35;2.15;;;;;;;20.53;43.88;101081.97;4896796;28;114101;-75
2022/05/11 05:39:44;;;;;;;3.63;2.50;;;;;;;20.55;44.16;101086.25;4911843;28;123622;-75
2022/05/11 05:42:20;;;;;;;3.03;2.13;;;;;;;20.57;44.11;101083.44;4911349;28;124103;-75
2022/05/11 05:44:47;;;;;;;6.85;2.60;;;;;;;20.59;43.89;101076.09;4926527;28;113581;-75
2022/05/11 05:47:15;;;;;;;3.05;2.30;;;;;;;20.61;43.96;101084.91;4926339;28;114151;-75
2022/05/11 05:49:43;;;;;;;4.47;2.20;;;;;;;20.62;43.99;101075.84;4893577;28;124115;-75
2022/05/11 05:52:16;;;;;;;5.53;2.30;;;;;;;20.63;44.14;101077.56;4925500;28;124067;-75
2022/05/11 05:54:45;;;;;;;3.42;2.33;;;;;;;20.66;43.98;101079.97;4910497;28;115063;-75
2022/05/11 05:57:13;;;;;;;3.03;2.10;;;;;;;20.67;43.73;101079.00;4893634;28;114522;-76
2022/05/11 05:59:41;;;;;;;3.83;2.08;;;;;;;20.68;43.79;101080.72;4910168;28;124411;-76
2022/05/11 06:02:12;;;;;;;3.38;2.28;;;;;;;20.70;44.02;101078.75;4893171;28;122858;-79
2022/05/11 06:04:41;;;;;;;2.58;1.98;;;;;;;20.73;44.08;101078.47;4925670;28;113293;-76
2022/05/11 06:07:11;;;;;;;4.50;2.20;;;;;;;20.76;43.95;101089.00;4893124;28;112911;-76
2022/05/11 06:09:41;;;;;;;5.63;2.55;;;;;;;20.78;43.96;101086.19;4893222;28;124463;-77
2022/05/11 06:12:12;;;;;;;3.70;2.15;;;;;;;20.82;43.80;101086.78;4925569;28;123966;-76
2022/05/11 06:14:40;;;;;;;3.53;1.88;;;;;;;20.84;43.76;101091.03;4924386;28;114168;-76
2022/05/11 06:17:20;;;;;;;3.72;1.83;;;;;;;20.87;43.76;101095.31;4893290;28;114227;-77
2022/05/11 06:19:49;;;;;;;2.80;1.70;;;;;;;20.92;43.78;101099.31;4891300;28;124190;-76
2022/05/11 06:22:16;;;;;;;3.08;1.63;;;;;;;20.97;43.70;101096.25;4912434;28;124197;-76
2022/05/11 06:24:44;;;;;;;2.80;1.70;;;;;;;21.03;43.28;101100.25;4896862;28;113110;-76
2022/05/11 06:27:17;;;;;;;3.55;1.98;;;;;;;21.08;43.34;101098.88;4896761;28;112806;-77
2022/05/11 06:29:56;;;;;;;3.72;1.80;;;;;;;21.12;43.29;101092.25;4911548;28;124036;-76
2022/05/11 06:32:24;;;;;;;3.15;1.55;;;;;;;21.18;43.01;101078.25;4913898;28;123969;-76
2022/05/11 06:34:53;;;;;;;2.92;1.40;;;;;;;21.25;42.72;101075.00;4896650;28;113136;-76
2022/05/11 06:37:22;;;;;;;3.28;1.90;;;;;;;21.31;42.65;101078.03;4897120;28;114140;-76
2022/05/11 06:39:50;;;;;;;2.35;1.65;;;;;;;21.39;42.32;101077.38;4913073;28;124172;-77
2022/05/11 06:42:20;;;;;;;2.85;1.50;;;;;;;21.47;42.31;101077.56;4914119;28;123992;-76
2022/05/11 06:44:49;;;;;;;2.92;1.20;;;;;;;21.56;42.30;101071.38;4913514;28;116858;-76
2022/05/11 06:47:17;;;;;;;3.92;1.50;;;;;;;21.66;41.93;101070.56;4896344;28;114184;-74
2022/05/11 06:49:44;;;;;;;7.43;1.85;;;;;;;21.75;41.98;101075.16;4911921;28;123025;-74
2022/05/11 06:52:11;;;;;;;3.05;1.40;;;;;;;21.85;41.84;101070.66;4896156;28;123024;-74
2022/05/11 07:00:18;;;;;;;3.03;1.55;;;;;;;22.20;41.41;101069.31;4894709;28;123619;-75
2022/05/11 07:02:45;;;;;;;3.22;1.67;;;;;;;22.31;41.06;101066.53;4896520;28;122870;-75
2022/05/11 07:05:12;;;;;;;4.38;1.55;;;;;;;22.43;41.41;101064.53;4912594;28;113503;-76
2022/05/11 07:07:40;;;;;;;3.95;1.48;;;;;;;22.58;40.87;101070.38;4896637;28;114512;-75
2022/05/11 07:10:07;;;;;;;2.15;1.30;;;;;;;22.69;40.69;101062.13;4912406;28;124266;-75
2022/05/11 07:12:37;;;;;;;1.90;1.20;;;;;;;22.81;40.45;101067.38;4913756;28;123782;-75
2022/05/11 07:15:08;;;;;;;2.42;1.45;;;;;;;22.92;40.18;101064.53;4913668;28;114482;-75
2022/05/11 07:17:39;;;;;;;2.40;1.20;;;;;;;23.02;39.85;101070.78;4896087;28;113947;-74
2022/05/11 07:20:10;;;;;;;4.05;1.40;;;;;;;23.09;39.75;101071.94;4912665;28;123388;-74
2022/05/11 07:22:41;;;;;;;2.50;1.42;;;;;;;23.19;39.97;101065.63;4927938;28;122924;-74
2022/05/11 07:25:12;;;;;;;2.20;1.38;;;;;;;23.32;39.65;101068.91;4928266;28;115168;-75
2022/05/11 07:27:40;;;;;;;3.53;1.40;;;;;;;23.40;39.62;101062.75;4928837;28;113276;-76
2022/05/11 07:30:09;;;;;;;3.10;1.50;;;;;;;23.48;39.38;101066.41;4895855;28;123131;-75
2022/05/11 07:32:37;;;;;;;2.60;1.40;;;;;;;23.61;39.41;101059.81;4927246;28;123171;-75
2022/05/11 07:35:06;;;;;;;2.25;1.60;;;;;;;23.73;39.29;101069.44;4913566;28;115042;-75
2022/05/11 07:37:33;;;;;;;1.73;1.10;;;;;;;23.81;39.43;101066.00;4896107;28;114758;-74
2022/05/11 07:40:00;;;;;;;5.15;1.60;;;;;;;23.88;39.16;101078.81;4894853;28;123978;-75
2022/05/11 07:42:28;;;;;;;2.80;1.55;;;;;;;23.96;39.01;101069.06;4927629;28;122747;-75
2022/05/11 07:44:55;;;;;;;3.55;1.40;;;;;;;24.00;38.75;101065.09;4913198;28;114188;-75
2022/05/11 07:47:22;;;;;;;2.92;1.38;;;;;;;24.06;38.72;101053.63;4897961;28;113828;-74
2022/05/11 07:49:49;;;;;;;3.35;1.38;;;;;;;24.14;38.74;101055.59;4913903;28;124848;-76
2022/05/11 07:52:17;;;;;;;4.28;1.40;;;;;;;24.18;38.47;101060.53;4916363;28;124529;-75
2022/05/11 07:54:44;;;;;;;3.72;1.45;;;;;;;24.22;38.49;101056.53;4898830;28;114043;-75
2022/05/11 08:00:02;;;;;;;5.07;1.65;;;;;;;24.29;38.18;101060.31;4911535;28;124426;-75
2022/05/11 08:02:32;;;;;;;4.18;1.40;;;;;;;24.34;38.37;101059.88;4915732;28;124031;-76
2022/05/11 08:05:05;;;;;;;4.63;1.73;;;;;;;24.43;38.31;101058.06;4904336;28;114834;-76
2022/05/11 08:07:42;;;;;;;3.97;1.70;;;;;;;24.53;38.31;101061.59;4902921;28;112844;-75
2022/05/11 08:10:14;;;;;;;3.67;1.70;;;;;;;24.61;38.27;101058.94;4913484;28;124371;-75
2022/05/11 08:12:42;;;;;;;5.95;1.58;;;;;;;24.67;37.78;101052.06;4913717;28;122840;-76
2022/05/11 08:15:11;;;;;;;3.53;1.90;;;;;;;24.67;37.80;101052.06;4929243;28;113535;-76
2022/05/11 08:17:41;;;;;;;3.60;1.80;;;;;;;24.66;37.89;101062.06;4897270;28;112909;-76
2022/05/11 08:20:19;;;;;;;4.47;1.83;;;;;;;24.70;38.07;101075.28;4896875;28;123829;-76
2022/05/11 08:22:47;;;;;;;4.25;1.73;;;;;;;24.76;38.25;101061.97;4911613;28;124185;-76
2022/05/11 08:25:17;;;;;;;3.13;1.60;;;;;;;24.85;38.05;101071.03;4928967;28;113807;-76
2022/05/11 08:27:44;;;;;;;7.13;2.05;;;;;;;24.88;37.83;101065.25;4914672;28;114645;-76
2022/05/11 08:36:08;;;;;;;3.80;1.73;;;;;;;24.67;37.57;101069.16;4911114;28;115269;-75
2022/05/11 08:38:39;;;;;;;5.28;2.35;;;;;;;24.62;37.48;101066.09;4895290;28;112436;-76
2022/05/11 08:41:15;;;;;;;4.95;1.80;;;;;;;24.60;37.53;101068.09;4894909;28;124303;-76
2022/05/11 08:43:43;;;;;;;4.13;1.75;;;;;;;24.60;37.65;101070.81;4912898;28;123403;-76
2022/05/11 08:46:15;;;;;;;5.70;2.10;;;;;;;24.59;37.43;101060.97;4913160;28;115015;-76
2022/05/11 08:48:59;;;;;;;5.03;1.58;;;;;;;24.60;37.54;101068.09;4927486;28;113783;-76
2022/05/11 08:51:35;;;;;;;4.93;2.22;;;;;;;24.63;37.27;101073.19;4895120;28;123527;-76
2022/05/11 08:54:13;;;;;;;5.13;1.95;;;;;;;24.60;37.33;101065.41;4895304;28;122681;-75
2022/05/11 08:56:43;;;;;;;6.40;2.10;;;;;;;24.60;37.19;101068.09;4911277;28;114515;-76
2022/05/11 08:59:21;;;;;;;4.30;2.10;;;;;;;24.63;37.41;101067.78;4910408;28;112764;-76
2022/05/11 09:01:59;;;;;;;4.40;2.03;;;;;;;24.68;37.32;101062.75;4925556;28;124112;-76
2022/05/11 09:04:48;;;;;;;3.72;1.80;;;;;;;24.73;37.62;101072.25;4894877;28;123523;-76
2022/05/11 09:07:16;;;;;;;5.68;2.00;;;;;;;24.74;37.55;101057.72;4893274;28;114128;-76
2022/05/11 09:09:43;;;;;;;4.55;2.33;;;;;;;24.79;37.40;101055.38;4895203;28;113598;-75
2022/05/11 09:12:11;;;;;;;5.32;1.73;;;;;;;24.81;37.00;101056.94;4912616;28;125201;-74
2022/05/11 09:14:49;;;;;;;3.88;1.77;;;;;;;24.82;36.74;101057.78;4913023;28;123776;-74
2022/05/11 09:17:24;;;;;;;6.07;2.30;;;;;;;24.81;36.78;101053.38;4925230;28;115120;-75
2022/05/11 09:20:01;;;;;;;4.85;2.22;;;;;;;24.80;36.78;101057.09;4925636;28;113888;-74
2022/05/11 09:22:31;;;;;;;5.88;2.13;;;;;;;24.79;36.88;101050.81;4894807;28;123655;-75
2022/05/11 09:25:10;;;;;;;4.80;2.33;;;;;;;24.81;36.90;101047.97;4925970;28;123760;-75
2022/05/11 09:27:38;;;;;;;4.70;2.22;;;;;;;24.84;36.83;101047.63;4910306;28;112826;-75
2022/05/11 09:30:14;;;;;;;5.55;2.28;;;;;;;24.90;36.92;101038.88;4909563;28;112864;-75
2022/05/11 09:32:48;;;;;;;5.38;2.25;;;;;;;24.93;36.66;101041.25;4910622;28;123898;-75
2022/05/11 09:35:26;;;;;;;5.70;2.17;;;;;;;24.93;36.69;101041.25;4911675;28;124604;-75
2022/05/11 09:38:02;;;;;;;4.35;1.90;;;;;;;24.94;36.96;101040.28;4909322;28;113804;-75
2022/05/11 09:40:30;;;;;;;5.95;2.10;;;;;;;25.00;36.94;101039.63;4892033;28;113741;-75
2022/05/11 09:43:04;;;;;;;4.78;1.92;;;;;;;25.03;36.68;101031.19;4925214;28;123009;-74
2022/05/11 09:45:45;;;;;;;4.95;2.22;;;;;;;25.06;36.81;101033.56;4893892;28;123688;-74
2022/05/11 09:48:16;;;;;;;4.40;2.05;;;;;;;25.09;36.68;101029.72;4909624;28;114068;-74
2022/05/11 09:50:44;;;;;;;5.00;1.90;;;;;;;25.13;36.46;101041.06;4909392;28;113055;-74
2022/05/11 09:53:22;;;;;;;3.58;2.28;;;;;;;25.17;36.78;101037.03;4910867;28;124989;-75
2022/05/11 09:55:50;;;;;;;3.33;1.98;;;;;;;25.26;36.39;101038.81;4893237;28;121809;-75
2022/05/11 09:58:32;;;;;;;6.82;2.30;;;;;;;25.31;36.32;101039.16;4925670;28;114231;-74
2022/05/11 10:01:10;;;;;;;5.90;2.28;;;;;;;25.31;35.97;101036.47;4891882;28;113847;-75
2022/05/11 10:03:43;;;;;;;4.85;2.35;;;;;;;25.31;36.34;101033.75;4909476;28;123244;-75
2022/05/11 10:06:13;;;;;;;5.75;2.20;;;;;;;25.33;36.40;101037.13;4910438;28;123912;-74
2022/05/11 10:08:44;;;;;;;4.43;2.20;;;;;;;25.37;36.71;101025.00;4892703;28;115190;-75
2022/05/11 10:11:34;;;;;;;5.72;2.40;;;;;;;25.41;35.93;101023.66;4909052;28;114771;-75
2022/05/11 10:23:29;;;;;;;3.22;2.30;;;;;;;25.51;36.25;101022.69;4910295;28;113949;-74
2022/05/11 10:26:04;;;;;;;4.45;2.20;;;;;;;25.61;36.83;101017.97;4908587;28;124069;-75
2022/05/11 10:28:48;;;;;;;3.78;2.28;;;;;;;25.73;36.53;101027.50;4924161;28;123951;-75
2022/05/11 10:31:36;;;;;;;4.27;2.30;;;;;;;25.80;36.15;101023.09;4908265;28;114050;-74
2022/05/11 10:34:20;;;;;;;3.53;2.10;;;;;;;25.82;36.27;101015.69;4925403;28;114042;-74
2022/05/11 10:36:59;;;;;;;5.80;2.28;;;;;;;25.88;35.92;101002.44;4892750;28;123647;-75
2022/05/11 10:39:50;;;;;;;6.57;2.33;;;;;;;25.93;35.90;101005.56;4908507;28;123832;-75
2022/05/11 10:42:34;;;;;;;4.80;2.15;;;;;;;25.94;35.72;101001.84;4910969;28;115302;-74
2022/05/11 10:45:16;;;;;;;4.88;2.25;;;;;;;25.94;35.72;100999.13;4909618;28;113770;-75
2022/05/11 10:48:17;;;;;;;6.78;2.58;;;;;;;25.98;36.02;100997.78;4909826;28;124419;-74
2022/05/11 10:50:56;;;;;;;5.97;2.70;;;;;;;26.02;36.00;100999.13;4907756;28;123639;-75
2022/05/11 10:53:41;;;;;;;4.53;2.25;;;;;;;26.08;36.17;100987.59;4909156;28;112772;-75
2022/05/11 10:56:48;;;;;;;3.95;2.20;;;;;;;26.16;35.58;100990.34;4893930;28;111914;-75
2022/05/11 10:59:25;;;;;;;3.72;2.10;;;;;;;26.19;35.73;100981.84;4908574;28;124798;-75
2022/05/11 11:02:17;;;;;;;4.25;2.15;;;;;;;26.27;36.00;100985.59;4908551;28;123328;-75
2022/05/11 11:05:15;;;;;;;6.43;2.65;;;;;;;26.34;35.59;100970.31;4908970;28;115293;-75
2022/05/11 11:08:24;;;;;;;4.30;2.08;;;;;;;26.40;35.66;100970.47;4913692;28;115261;-75
2022/05/11 11:11:06;;;;;;;3.78;2.05;;;;;;;26.43;35.43;100963.88;4912899;28;125297;-75
2022/05/11 11:13:38;;;;;;;6.93;2.63;;;;;;;26.42;35.62;100973.03;4896614;28;123780;-75
2022/05/11 11:16:10;;;;;;;4.10;2.30;;;;;;;26.44;34.81;100971.00;4894829;28;114779;-75
2022/05/11 11:18:46;;;;;;;5.80;2.35;;;;;;;26.51;35.37;100977.44;4912962;28;113913;-75
2022/05/11 11:21:14;;;;;;;5.65;2.15;;;;;;;26.59;35.16;100969.31;4927594;28;124632;-75
2022/05/11 11:23:45;;;;;;;2.78;1.70;;;;;;;26.67;34.39;100981.19;4897237;28;123366;-75
2022/05/11 11:26:41;;;;;;;3.28;1.60;;;;;;;26.68;34.78;100972.03;4911815;28;114286;-75
2022/05/11 11:29:08;;;;;;;3.80;1.65;;;;;;;26.72;34.72;100967.94;4913978;28;114162;-75
2022/05/11 11:31:58;;;;;;;3.83;1.42;;;;;;;26.79;34.21;100966.25;4927190;28;124882;-75
2022/05/11 11:34:29;;;;;;;2.92;1.80;;;;;;;26.86;33.82;100953.66;4896111;28;123116;-76
2022/05/11 11:36:56;;;;;;;4.55;1.92;;;;;;;26.90;34.11;100954.16;4926804;28;114487;-75
2022/05/11 11:39:58;;;;;;;3.33;1.77;;;;;;;26.94;33.74;100945.50;4896033;28;113023;-75
2022/05/11 11:42:37;;;;;;;4.85;1.60;;;;;;;26.99;33.83;100948.53;4927561;28;124329;-75
2022/05/11 11:45:29;;;;;;;2.08;1.30;;;;;;;27.11;33.91;100950.88;4925660;28;123792;-75
2022/05/11 11:48:00;;;;;;;3.55;1.65;;;;;;;27.22;33.47;100942.34;4884425;28;114123;-75
2022/05/11 11:50:47;;;;;;;3.67;1.75;;;;;;;27.30;33.29;100936.91;4913114;28;114409;-75
2022/05/11 11:53:52;;;;;;;3.38;1.80;;;;;;;27.33;32.89;100928.41;4927282;28;123372;-76
2022/05/11 11:56:25;;;;;;;3.83;1.50;;;;;;;27.33;32.95;100939.28;4927958;28;124079;-75
2022/05/11 11:59:09;;;;;;;4.43;1.40;;;;;;;27.35;32.78;100931.78;4927283;28;114561;-75
2022/05/11 12:01:47;;;;;;;3.88;1.63;;;;;;;27.38;32.83;100931.41;4910138;28;114456;-75
2022/05/11 12:04:30;;;;;;;4.50;1.50;;;;;;;27.43;32.83;100938.22;4911270;28;124100;-75
2022/05/11 12:15:30;;;;;;;4.43;1.60;;;;;;;27.47;32.71;100923.22;4911944;28;123887;-75
2022/05/11 12:17:58;;;;;;;3.53;1.75;;;;;;;27.55;32.72;100910.41;4925138;28;124020;-75